Time;durP1;ratioP1;P1;durP2;ratioP2;P2;SDS_P1;SDS_P2;PMS_P1;PMS_P2;Temp;Humidity;BMP_temperature;BMP_pressure;BME280_temperature;BME280_humidity;BME280_pressure;Samples;Min_cycle;Max_cycle;Signal;HPM_P1;HPM_P2
2024/03/26 00:02:17;;;;;;;2.55;1.67;;;;;;;4.36;59.54;98434.84;5026748;28;20025;-79
2024/03/26 00:04:42;;;;;;;2.10;1.88;;;;;;;4.07;59.87;98404.94;5039996;28;20059;-79
2024/03/26 00:07:08;;;;;;;1.88;1.60;;;;;;;4.20;59.74;98429.88;5052326;28;20028;-79
2024/03/26 00:09:33;;;;;;;3.35;1.67;;;;;;;4.47;59.62;98449.22;5052914;28;20035;-79
2024/03/26 00:11:59;;;;;;;2.13;1.80;;;;;;;4.33;59.06;98411.81;5019480;28;20049;-79
2024/03/26 00:14:24;;;;;;;2.90;2.03;;;;;;;4.29;58.90;98410.25;5046130;28;20485;-79
2024/03/26 00:16:50;;;;;;;2.97;1.90;;;;;;;4.40;60.16;98430.88;5052780;28;20045;-79
2024/03/26 00:19:15;;;;;;;2.83;1.70;;;;;;;4.56;60.02;98459.72;5039310;28;20120;-80
2024/03/26 00:21:40;;;;;;;2.20;1.60;;;;;;;4.53;59.43;98455.81;5051079;28;20070;-79
2024/03/26 00:24:06;;;;;;;3.35;1.70;;;;;;;4.33;60.66;98430.19;5052241;28;20033;-78
2024/03/26 00:26:32;;;;;;;1.83;1.63;;;;;;;4.66;59.96;98459.63;5038061;28;20024;-78
2024/03/26 00:28:57;;;;;;;3.35;1.88;;;;;;;4.12;59.03;98375.63;5052714;28;20033;-79
2024/03/26 00:31:23;;;;;;;4.05;1.88;;;;;;;4.32;60.21;98421.19;5046533;28;20025;-78
2024/03/26 00:33:48;;;;;;;2.95;1.90;;;;;;;4.55;61.47;98449.94;5043823;28;20040;-79
2024/03/26 00:36:13;;;;;;;5.55;3.30;;;;;;;4.06;59.83;98419.00;5052006;28;20087;-79
2024/03/26 00:38:39;;;;;;;4.05;2.65;;;;;;;4.17;60.21;98444.34;5040009;28;20128;-79
2024/03/26 00:41:04;;;;;;;4.15;2.40;;;;;;;3.96;60.01;98431.56;5046083;28;20055;-79
2024/03/26 00:43:30;;;;;;;3.67;2.03;;;;;;;4.20;60.02;98459.16;5043534;28;20030;-80
2024/03/26 00:45:55;;;;;;;5.57;2.63;;;;;;;4.25;61.03;98437.66;5046773;28;20017;-80
2024/03/26 00:48:21;;;;;;;4.10;1.95;;;;;;;4.22;61.33;98437.69;5043444;28;20107;-79
2024/03/26 00:50:46;;;;;;;3.15;2.33;;;;;;;4.38;61.13;98465.31;5052480;28;20074;-79
2024/03/26 00:53:12;;;;;;;4.63;2.70;;;;;;;4.19;61.17;98430.28;5051647;28;20032;-80
2024/03/26 00:55:38;;;;;;;4.90;2.30;;;;;;;4.23;61.07;98441.94;5051269;28;20503;-78
2024/03/26 00:58:03;;;;;;;3.15;2.10;;;;;;;4.37;60.61;98456.31;5052024;28;20033;-79
2024/03/26 01:00:29;;;;;;;4.88;2.35;;;;;;;4.25;60.51;98437.66;5051428;28;20063;-79
2024/03/26 01:02:54;;;;;;;5.97;2.40;;;;;;;4.25;59.92;98423.97;5051820;28;20510;-79
2024/03/26 01:05:19;;;;;;;3.50;1.80;;;;;;;4.18;59.34;98418.53;5052663;28;20491;-78
2024/03/26 01:07:45;;;;;;;3.13;2.55;;;;;;;4.20;60.01;98429.09;5051645;28;20035;-79
2024/03/26 01:10:10;;;;;;;3.00;2.03;;;;;;;3.90;61.29;98419.50;5051164;28;20025;-81
2024/03/26 01:12:36;;;;;;;3.03;2.20;;;;;;;3.45;62.00;98377.56;5051396;28;20040;-79
2024/03/26 01:15:01;;;;;;;3.08;2.30;;;;;;;3.61;62.11;98424.34;5051558;28;20025;-79
2024/03/26 01:17:27;;;;;;;3.20;2.38;;;;;;;3.53;62.83;98425.53;5051294;28;20029;-79
2024/03/26 01:19:52;;;;;;;3.33;2.50;;;;;;;3.49;63.80;98432.19;5045952;28;20022;-78
2024/03/26 01:22:18;;;;;;;6.13;2.40;;;;;;;3.44;65.65;98427.09;5044317;28;20094;-78
2024/03/26 01:24:43;;;;;;;5.38;2.88;;;;;;;3.56;67.04;98456.72;5050379;28;20409;-79
2024/03/26 01:27:08;;;;;;;4.35;2.08;;;;;;;3.26;68.03;98422.47;5052464;28;20496;-78
2024/03/26 01:29:35;;;;;;;4.30;2.30;;;;;;;3.03;67.16;98397.59;5046978;28;20033;-80
2024/03/26 01:32:01;;;;;;;4.22;2.63;;;;;;;3.13;67.40;98426.81;5041806;28;20028;-78
2024/03/26 01:34:27;;;;;;;3.13;2.45;;;;;;;3.05;68.14;98414.34;5049966;28;20021;-78
2024/03/26 01:36:53;;;;;;;6.20;2.85;;;;;;;3.06;66.98;98426.84;5051024;28;20032;-79
2024/03/26 01:39:18;;;;;;;5.03;2.63;;;;;;;3.13;67.84;98456.06;5050517;28;20017;-78
2024/03/26 01:41:43;;;;;;;6.07;3.03;;;;;;;3.13;67.65;98464.25;5050745;28;20037;-79
2024/03/26 01:44:09;;;;;;;10.60;5.40;;;;;;;3.05;67.98;98473.63;5052143;28;20036;-78
2024/03/26 01:46:36;;;;;;;9.20;4.30;;;;;;;2.86;68.56;98459.22;5050552;28;20047;-80
2024/03/26 01:49:07;;;;;;;6.45;3.65;;;;;;;2.69;69.46;98456.50;5049724;28;20136;-79
2024/03/26 01:51:34;;;;;;;5.18;3.20;;;;;;;2.54;69.28;98433.88;5050109;28;20065;-79
2024/03/26 01:54:02;;;;;;;6.03;2.95;;;;;;;2.53;69.77;98451.44;5051684;28;20025;-79
2024/03/26 01:56:28;;;;;;;5.75;2.70;;;;;;;2.47;69.78;98444.81;5051625;28;20033;-79
2024/03/26 01:58:54;;;;;;;4.47;3.25;;;;;;;2.29;69.77;98422.97;5050285;28;20051;-78
2024/03/26 02:01:20;;;;;;;3.83;2.30;;;;;;;2.33;68.81;98431.94;5051923;28;20028;-79
2024/03/26 02:03:45;;;;;;;4.47;3.10;;;;;;;2.43;70.35;98446.72;5045260;28;20022;-79
2024/03/26 02:06:10;;;;;;;4.53;2.58;;;;;;;2.70;71.40;98471.69;5030318;28;20056;-80
2024/03/26 02:08:37;;;;;;;4.47;2.33;;;;;;;2.56;70.25;98437.00;5047962;28;20087;-78
2024/03/26 02:11:02;;;;;;;4.25;2.60;;;;;;;2.88;70.60;98485.34;5039261;28;20087;-78
2024/03/26 02:13:28;;;;;;;3.28;2.20;;;;;;;2.64;71.29;98465.06;5043375;28;20025;-79
2024/03/26 02:15:53;;;;;;;4.63;2.83;;;;;;;2.68;71.86;98465.84;5041385;28;20163;-78
2024/03/26 02:18:19;;;;;;;2.45;2.10;;;;;;;2.65;71.27;98461.19;5049598;28;20017;-79
2024/03/26 02:20:44;;;;;;;2.97;1.83;;;;;;;2.39;71.84;98411.31;5051187;28;20033;-78
2024/03/26 02:23:09;;;;;;;3.50;2.40;;;;;;;2.59;70.96;98449.88;5051168;28;20032;-79
2024/03/26 02:25:35;;;;;;;4.22;1.75;;;;;;;2.44;70.39;98434.66;5050481;28;20032;-79
2024/03/26 02:28:00;;;;;;;3.55;2.28;;;;;;;2.72;68.05;98450.25;5050837;28;20511;-80
2024/03/26 02:30:26;;;;;;;4.47;2.20;;;;;;;2.73;66.64;98435.44;5039122;28;20621;-78
2024/03/26 02:32:51;;;;;;;5.38;2.10;;;;;;;2.96;66.37;98460.34;5048221;28;20477;-80
2024/03/26 02:35:16;;;;;;;4.30;2.70;;;;;;;2.99;65.50;98459.59;5050229;28;20039;-80
2024/03/26 02:37:42;;;;;;;5.25;2.55;;;;;;;2.83;65.17;98429.22;5048880;28;20040;-79
2024/03/26 02:40:08;;;;;;;3.75;2.67;;;;;;;3.39;64.56;98491.09;5050168;28;20435;-79
2024/03/26 02:42:34;;;;;;;4.63;3.08;;;;;;;3.42;64.06;98487.59;5050964;28;20029;-79
2024/03/26 02:44:59;;;;;;;2.85;2.20;;;;;;;3.10;64.06;98462.31;5049807;28;20028;-79
2024/03/26 02:47:25;;;;;;;3.45;2.15;;;;;;;3.04;63.99;98455.69;5036030;28;20013;-79
2024/03/26 02:49:50;;;;;;;3.22;1.90;;;;;;;2.65;63.45;98431.94;5049295;28;20063;-79
2024/03/26 02:52:15;;;;;;;2.38;1.80;;;;;;;2.96;63.64;98481.41;5049380;28;20036;-80
2024/03/26 02:54:41;;;;;;;1.88;1.67;;;;;;;2.73;63.14;98435.44;5039240;28;20041;-79
2024/03/26 02:57:06;;;;;;;4.18;2.10;;;;;;;3.09;63.54;98486.09;5046805;28;20492;-79
2024/03/26 02:59:32;;;;;;;4.90;2.00;;;;;;;2.93;63.89;98488.44;5049753;28;20025;-79
2024/03/26 03:01:57;;;;;;;3.05;2.17;;;;;;;2.55;64.53;98435.44;5049775;28;20108;-78
2024/03/26 03:04:22;;;;;;;5.95;3.17;;;;;;;2.76;64.63;98481.03;5051028;28;20029;-79
2024/03/26 03:06:48;;;;;;;6.03;2.70;;;;;;;2.49;65.42;98437.00;5049160;28;20060;-80
2024/03/26 03:09:13;;;;;;;5.20;2.40;;;;;;;2.59;67.16;98481.81;5048988;28;20412;-78
2024/03/26 03:11:39;;;;;;;5.03;2.50;;;;;;;2.45;67.82;98502.44;5049397;28;20025;-79
2024/03/26 03:14:05;;;;;;;4.65;2.42;;;;;;;2.01;68.14;98461.06;5050859;28;20056;-78
2024/03/26 03:16:30;;;;;;;5.07;2.90;;;;;;;1.96;69.25;98483.25;5050507;28;20047;-78
2024/03/26 03:18:56;;;;;;;4.90;3.28;;;;;;;1.60;70.33;98434.09;5050820;28;20412;-79
2024/03/26 03:21:22;;;;;;;9.18;3.42;;;;;;;1.76;72.05;98479.25;5049009;28;20058;-79
2024/03/26 03:23:47;;;;;;;3.70;2.55;;;;;;;1.65;72.25;98476.50;5049125;28;20123;-78
2024/03/26 03:26:13;;;;;;;6.00;2.60;;;;;;;1.62;72.39;98482.72;5048931;28;20108;-78
2024/03/26 03:28:38;;;;;;;4.50;2.50;;;;;;;1.74;72.50;98500.66;5049054;28;20469;-78
2024/03/26 03:31:05;;;;;;;5.80;2.70;;;;;;;1.63;72.27;98481.53;5048970;28;20090;-79
2024/03/26 03:33:31;;;;;;;4.93;2.90;;;;;;;1.40;72.22;98470.94;5049386;28;20060;-79
2024/03/26 03:35:56;;;;;;;4.15;2.83;;;;;;;1.79;72.85;98513.91;5050581;28;20477;-79
2024/03/26 03:38:22;;;;;;;4.40;2.88;;;;;;;1.42;72.71;98468.63;5050408;28;20400;-80
2024/03/26 03:40:49;;;;;;;3.03;2.40;;;;;;;1.69;73.79;98539.91;5049037;28;20535;-80
2024/03/26 03:43:15;;;;;;;4.05;2.15;;;;;;;1.38;74.48;98507.88;5049148;28;20047;-78
2024/03/26 03:45:40;;;;;;;5.38;2.58;;;;;;;1.33;74.96;98508.22;5049228;28;20421;-79
2024/03/26 03:48:06;;;;;;;3.15;2.00;;;;;;;1.24;76.36;98511.28;5038940;28;20053;-79
2024/03/26 03:50:31;;;;;;;4.18;2.17;;;;;;;1.06;75.92;98483.97;5045264;28;20090;-78
2024/03/26 03:52:57;;;;;;;4.05;2.33;;;;;;;0.94;76.13;98467.94;5050890;28;20029;-78
2024/03/26 03:55:22;;;;;;;4.00;2.13;;;;;;;1.15;74.82;98505.38;5037283;28;20473;-79
2024/03/26 03:57:48;;;;;;;2.58;2.20;;;;;;;0.76;74.43;98496.94;5053048;28;20039;-78
2024/03/26 04:00:13;;;;;;;4.15;2.00;;;;;;;0.54;75.09;98482.41;5052621;28;20464;-80
2024/03/26 04:02:39;;;;;;;3.92;2.40;;;;;;;0.71;76.37;98536.13;5052609;28;20033;-79
2024/03/26 04:05:04;;;;;;;2.40;1.67;;;;;;;0.21;77.72;98498.75;5052426;28;20505;-78
2024/03/26 04:07:30;;;;;;;5.95;2.47;;;;;;;0.25;78.71;98513.94;5052564;28;20517;-79
2024/03/26 04:09:55;;;;;;;3.03;2.17;;;;;;;0.34;79.41;98529.94;5050265;28;20037;-78
2024/03/26 04:12:20;;;;;;;4.22;2.10;;;;;;;0.37;79.54;98549.00;5042082;28;20409;-78
2024/03/26 04:14:46;;;;;;;3.78;2.30;;;;;;;0.20;79.75;98518.91;5039141;28;20092;-78
2024/03/26 04:17:11;;;;;;;4.55;2.13;;;;;;;0.37;79.83;98526.47;5044794;28;20508;-79
2024/03/26 04:19:37;;;;;;;1.58;1.48;;;;;;;0.80;78.71;98560.28;5047790;28;20040;-78
2024/03/26 04:22:02;;;;;;;3.97;2.45;;;;;;;0.98;78.71;98553.06;5051914;28;20033;-79
2024/03/26 04:24:27;;;;;;;21.27;10.35;;;;;;;1.39;77.04;98559.19;5051645;28;20063;-78
2024/03/26 04:26:53;;;;;;;7.95;5.13;;;;;;;1.23;76.11;98534.22;5052374;28;20025;-79
2024/03/26 04:29:18;;;;;;;12.00;5.80;;;;;;;1.15;75.92;98536.09;5053085;28;20110;-80
2024/03/26 04:31:44;;;;;;;9.90;5.65;;;;;;;1.45;76.53;98552.22;5052052;28;20609;-78
2024/03/26 04:34:09;;;;;;;4.35;3.20;;;;;;;1.47;75.51;98549.91;5051610;28;20033;-78
2024/03/26 04:36:35;;;;;;;2.30;2.10;;;;;;;1.77;75.88;98543.47;5044021;28;20025;-78
2024/03/26 04:39:00;;;;;;;2.63;2.20;;;;;;;1.55;73.20;98455.47;5033181;28;20045;-78
2024/03/26 04:41:26;;;;;;;6.10;1.80;;;;;;;2.62;70.58;98560.13;5051660;28;20056;-79
2024/03/26 04:43:51;;;;;;;1.88;1.60;;;;;;;2.97;69.21;98571.06;5051604;28;20025;-80
2024/03/26 04:46:17;;;;;;;2.05;1.85;;;;;;;3.31;66.94;98578.91;5053178;28;20025;-80
2024/03/26 04:48:45;;;;;;;2.42;1.33;;;;;;;3.13;66.62;98507.94;5051248;28;20056;-78
2024/03/26 04:51:11;;;;;;;3.17;2.03;;;;;;;3.35;67.65;98561.34;5043474;28;20029;-79
2024/03/26 04:53:36;;;;;;;2.92;2.05;;;;;;;3.67;66.67;98597.59;5034719;28;20033;-78
2024/03/26 04:56:02;;;;;;;5.05;1.95;;;;;;;3.86;66.06;98588.16;5043825;28;20475;-79
2024/03/26 04:58:27;;;;;;;4.07;1.58;;;;;;;4.53;63.94;98605.50;5047564;28;20055;-79
2024/03/26 05:00:53;;;;;;;3.03;1.58;;;;;;;4.90;62.17;98587.31;5053188;28;20047;-79
2024/03/26 05:03:18;;;;;;;4.05;2.42;;;;;;;5.28;58.55;98538.13;5052430;28;20416;-79
2024/03/26 05:05:44;;;;;;;4.22;2.08;;;;;;;6.22;55.81;98553.97;5051329;28;20057;-79
2024/03/26 05:08:10;;;;;;;4.00;2.17;;;;;;;7.08;53.45;98586.53;5051033;28;20036;-78
2024/03/26 05:10:35;;;;;;;4.13;1.95;;;;;;;7.71;51.57;98577.25;5051237;28;20039;-79
2024/03/26 05:13:00;;;;;;;;;;;;;;;8.67;48.60;98586.41;5052180;28;20547;-81
2024/03/26 05:15:26;;;;;;;;;;;;;;;9.12;47.72;98594.81;5049907;28;20366;-79
2024/03/26 05:17:51;;;;;;;;;;;;;;;9.21;47.48;98581.22;5045650;28;19913;-79
2024/03/26 05:20:16;;;;;;;;;;;;;;;9.07;47.57;98580.78;5039733;28;19912;-78
2024/03/26 05:22:41;;;;;;;3.10;1.20;;;;;;;8.52;48.51;98533.59;5051598;28;19913;-78
2024/03/26 05:25:07;;;;;;;6.97;2.17;;;;;;;8.73;48.37;98575.66;5044197;28;20405;-79
2024/03/26 05:27:33;;;;;;;3.30;2.15;;;;;;;8.78;49.72;98595.19;5031305;28;20171;-78
2024/03/26 05:29:58;;;;;;;;;;;;;;;9.59;49.41;98592.50;5031880;28;20501;-79
2024/03/26 05:32:24;;;;;;;;;;;;;;;10.09;47.61;98599.50;5045414;28;19913;-81
2024/03/26 05:34:49;;;;;;;;;;;;;;;10.76;46.02;98600.38;5051326;28;19912;-78
2024/03/26 05:37:15;;;;;;;;;;;;;;;10.90;45.29;98599.19;5051429;28;19913;-79
2024/03/26 05:39:40;;;;;;;;;;;;;;;11.01;44.10;98603.16;5046119;28;19943;-81
2024/03/26 05:42:06;;;;;;;;;;;;;;;11.39;43.09;98589.31;5044978;28;19919;-79
2024/03/26 05:44:31;;;;;;;;;;;;;;;11.96;42.04;98598.53;5051327;28;19916;-80
2024/03/26 05:46:56;;;;;;;;;;;;;;;12.32;40.45;98583.41;5051182;28;19999;-79
2024/03/26 05:49:21;;;;;;;;;;;;;;;12.60;40.05;98577.59;5051179;28;19925;-80
2024/03/26 05:51:47;;;;;;;;;;;;;;;12.76;41.16;98587.72;5051233;28;20458;-78
2024/03/26 05:54:12;;;;;;;;;;;;;;;12.49;41.80;98595.84;5051300;28;19917;-80
2024/03/26 05:56:37;;;;;;;;;;;;;;;11.93;41.82;98599.44;5051338;28;20442;-80
2024/03/26 05:59:03;;;;;;;3.30;1.90;;;;;;;10.53;43.10;98587.63;5036617;28;20408;-78
2024/03/26 06:01:28;;;;;;;3.25;1.98;;;;;;;10.12;45.01;98584.81;5051159;28;20638;-80
2024/03/26 06:03:53;;;;;;;4.47;1.75;;;;;;;10.47;45.21;98614.25;5050875;28;20557;-82
2024/03/26 06:06:19;;;;;;;;;;;;;;;11.36;43.33;98606.03;5051265;28;20033;-80
2024/03/26 06:08:44;;;;;;;;;;;;;;;12.72;41.66;98619.56;5039791;28;19917;-79
2024/03/26 06:11:09;;;;;;;;;;;;;;;13.51;39.50;98607.75;5051537;28;20407;-82
2024/03/26 06:13:35;;;;;;;;;;;;;;;14.32;38.22;98605.56;5038588;28;19928;-79
2024/03/26 06:16:04;;;;;;;;;;;;;;;15.24;35.75;98604.16;5037098;28;20010;-80
2024/03/26 06:18:29;;;;;;;;;;;;;;;15.61;35.37;98599.19;5050821;28;19909;-81
2024/03/26 06:20:54;;;;;;;;;;;;;;;16.24;34.06;98604.31;5037131;28;20407;-81
2024/03/26 06:23:19;;;;;;;;;;;;;;;16.81;32.67;98595.00;5045957;28;19970;-79
2024/03/26 06:25:45;;;;;;;;;;;;;;;17.61;30.58;98602.09;5043367;28;19923;-82
2024/03/26 06:28:10;;;;;;;;;;;;;;;18.15;28.82;98592.13;5048108;28;19912;-78
2024/03/26 06:30:37;;;;;;;;;;;;;;;18.25;29.07;98587.97;5038191;28;19943;-80
2024/03/26 06:33:02;;;;;;;;;;;;;;;18.32;29.73;98590.34;5050928;28;19920;-78
2024/03/26 06:35:28;;;;;;;;;;;;;;;18.08;30.63;98598.19;5048029;28;19921;-79
2024/03/26 06:37:53;;;;;;;;;;;;;;;18.63;29.54;98603.63;5030557;28;20409;-79
2024/03/26 06:40:18;;;;;;;;;;;;;;;19.22;28.78;98589.16;5031702;28;20287;-79
2024/03/26 06:42:44;;;;;;;;;;;;;;;19.47;27.95;98594.69;5031319;28;19913;-81
2024/03/26 06:45:09;;;;;;;;;;;;;;;20.30;26.96;98593.59;5029132;28;20023;-79
2024/03/26 06:47:34;;;;;;;;;;;;;;;20.32;25.65;98588.25;5033293;28;20413;-79
2024/03/26 06:50:00;;;;;;;;;;;;;;;19.84;25.83;98600.28;5034507;28;20465;-82
2024/03/26 06:52:25;;;;;;;;;;;;;;;19.35;26.04;98603.53;5037947;28;19936;-80
2024/03/26 06:54:51;;;;;;;;;;;;;;;19.12;26.03;98588.56;5050258;28;19913;-77
2024/03/26 06:57:16;;;;;;;;;;;;;;;18.91;28.09;98587.88;5050174;28;20419;-79
2024/03/26 06:59:41;;;;;;;;;;;;;;;18.42;27.52;98600.09;5050112;28;19913;-80
2024/03/26 07:02:06;;;;;;;;;;;;;;;18.40;28.02;98594.22;5049994;28;19920;-79
2024/03/26 07:04:32;;;;;;;;;;;;;;;17.70;28.99;98596.41;5027254;28;20020;-78
2024/03/26 07:06:57;;;;;;;;;;;;;;;16.94;29.89;98607.41;5030793;28;20408;-82
2024/03/26 07:09:22;;;;;;;;;;;;;;;16.88;29.80;98603.75;5041251;28;19917;-79
2024/03/26 07:11:47;;;;;;;;;;;;;;;17.17;29.71;98599.41;5050284;28;19921;-79
2024/03/26 07:14:15;;;;;;;;;;;;;;;17.37;30.75;98599.44;5039307;28;19913;-81
2024/03/26 07:16:41;;;;;;;;;;;;;;;17.00;30.85;98605.47;5046157;28;19913;-78
2024/03/26 07:19:06;;;;;;;;;;;;;;;16.96;29.42;98590.16;5047928;28;20281;-81
2024/03/26 07:21:32;;;;;;;;;;;;;;;17.04;30.72;98592.09;5034760;28;19912;-78
2024/03/26 07:23:57;;;;;;;;;;;;;;;17.05;29.70;98590.09;5047458;28;19918;-81
2024/03/26 07:26:23;;;;;;;;;;;;;;;16.65;29.25;98596.22;5047313;28;19956;-81
2024/03/26 07:28:48;;;;;;;;;;;;;;;16.13;31.75;98586.59;5047889;28;19916;-81
2024/03/26 07:31:14;;;;;;;;;;;;;;;16.24;30.70;98595.19;5035129;28;19909;-78
2024/03/26 07:33:39;;;;;;;2.10;1.20;;;;;;;15.99;30.41;98540.72;5051261;28;20823;-79
2024/03/26 07:36:05;;;;;;;1.45;1.20;;;;;;;15.48;30.47;98536.13;5053432;28;20111;-79
2024/03/26 07:38:30;;;;;;;1.55;1.08;;;;;;;15.40;31.80;98548.06;5053165;28;20025;-80
2024/03/26 07:40:55;;;;;;;1.40;0.90;;;;;;;14.75;30.13;98549.59;5052557;28;20027;-79
2024/03/26 07:43:21;;;;;;;1.48;1.23;;;;;;;14.46;31.48;98557.72;5053088;28;20108;-78
2024/03/26 07:45:46;;;;;;;1.73;1.40;;;;;;;14.11;31.33;98535.78;5052552;28;20474;-78
2024/03/26 07:48:12;;;;;;;8.80;1.65;;;;;;;13.30;31.49;98508.75;5052788;28;20064;-79
2024/03/26 07:50:38;;;;;;;8.63;1.50;;;;;;;13.78;31.36;98532.09;5048002;28;20036;-78
2024/03/26 07:53:03;;;;;;;4.93;2.35;;;;;;;13.69;31.64;98535.63;5044548;28;20033;-78
2024/03/26 07:55:29;;;;;;;6.03;3.42;;;;;;;13.73;32.53;98558.47;5049363;28;20018;-79
2024/03/26 07:57:54;;;;;;;8.52;6.78;;;;;;;13.19;32.16;98509.19;5045377;28;20032;-79
2024/03/26 08:00:20;;;;;;;22.90;17.98;;;;;;;13.05;33.94;98468.13;5052586;28;20116;-80
2024/03/26 08:02:46;;;;;;;12.77;10.15;;;;;;;13.96;31.46;98548.00;5052818;28;20610;-81
2024/03/26 08:05:11;;;;;;;3.22;2.00;;;;;;;14.50;34.22;98549.97;5038673;28;20028;-79
2024/03/26 08:07:37;;;;;;;1.92;1.50;;;;;;;15.05;32.41;98531.09;5052403;28;20033;-79
2024/03/26 08:10:02;;;;;;;5.65;2.00;;;;;;;15.27;33.01;98519.69;5053851;28;20040;-79
2024/03/26 08:12:28;;;;;;;1.70;1.60;;;;;;;15.17;32.99;98468.88;5053452;28;20468;-79
2024/03/26 08:14:53;;;;;;;1.40;1.25;;;;;;;16.01;32.47;98543.03;5040416;28;20479;-82
2024/03/26 08:17:19;;;;;;;1.20;1.10;;;;;;;15.96;31.59;98524.97;5053115;28;20488;-81
2024/03/26 08:19:44;;;;;;;1.42;1.30;;;;;;;16.33;31.67;98555.31;5038898;28;20021;-79
2024/03/26 08:22:09;;;;;;;2.00;1.30;;;;;;;16.29;32.01;98547.91;5052441;28;20031;-80
2024/03/26 08:24:35;;;;;;;1.63;1.38;;;;;;;16.38;30.66;98519.16;5050199;28;20071;-78
2024/03/26 08:27:00;;;;;;;2.80;1.33;;;;;;;16.37;30.64;98528.00;5043102;28;20043;-79
2024/03/26 08:29:26;;;;;;;1.60;1.30;;;;;;;16.58;30.26;98551.94;5052727;28;20033;-81
2024/03/26 08:31:51;;;;;;;2.78;1.35;;;;;;;16.43;30.00;98507.34;5051864;28;20082;-80
2024/03/26 08:34:17;;;;;;;11.57;5.10;;;;;;;15.16;29.25;98472.91;5038308;28;20025;-81
2024/03/26 08:36:43;;;;;;;2.65;1.73;;;;;;;14.02;31.38;98516.34;5052907;28;20025;-79
2024/03/26 08:39:10;;;;;;;2.28;1.42;;;;;;;14.66;31.79;98482.88;5053082;28;20028;-79
2024/03/26 08:41:36;;;;;;;3.67;2.00;;;;;;;16.02;30.93;98533.44;5051465;28;20033;-81
2024/03/26 08:44:03;;;;;;;3.58;2.08;;;;;;;16.45;31.70;98521.59;5051337;28;20025;-80
2024/03/26 08:46:29;;;;;;;1.50;1.30;;;;;;;16.22;31.25;98478.56;5052021;28;20087;-78
2024/03/26 08:48:55;;;;;;;;;;;;;;;17.14;29.44;98547.31;5051508;28;20422;-81
2024/03/26 08:51:23;;;;;;;;;;;;;;;17.33;30.27;98548.63;5052062;28;19916;-81
2024/03/26 08:53:48;;;;;;;;;;;;;;;17.21;29.73;98558.84;5038760;28;19916;-78
2024/03/26 08:56:15;;;;;;;;;;;;;;;17.09;27.29;98557.91;5049671;28;20301;-80
2024/03/26 08:58:43;;;;;;;11.98;6.47;;;;;;;16.10;26.15;98518.63;5035388;28;20375;-79
2024/03/26 09:01:08;;;;;;;2.88;1.40;;;;;;;16.27;25.95;98538.50;5039600;28;20086;-79
2024/03/26 09:03:34;;;;;;;;;;;;;;;16.45;26.19;98560.63;5047309;28;20025;-78
2024/03/26 09:05:59;;;;;;;;;;;;;;;16.07;25.79;98557.84;5053233;28;19920;-78
2024/03/26 09:08:24;;;;;;;;;;;;;;;15.72;26.37;98554.88;5051917;28;19950;-79
2024/03/26 09:10:49;;;;;;;;;;;;;;;15.62;28.11;98545.78;5051892;28;19947;-80
2024/03/26 09:13:15;;;;;;;17.77;13.33;;;;;;;15.31;29.19;98495.25;5050447;28;20456;-79
2024/03/26 09:15:40;;;;;;;5.43;2.67;;;;;;;15.55;28.87;98509.19;5039192;28;20028;-79
2024/03/26 09:18:07;;;;;;;3.35;1.95;;;;;;;16.72;28.29;98533.72;5037372;28;20029;-79
2024/03/26 09:20:33;;;;;;;3.75;2.85;;;;;;;16.56;29.68;98507.81;5052300;28;20029;-78
2024/03/26 09:22:58;;;;;;;2.10;1.70;;;;;;;17.20;28.63;98542.59;5050122;28;20017;-79
2024/03/26 09:25:25;;;;;;;2.75;2.30;;;;;;;17.39;28.33;98538.28;5051558;28;20020;-78
2024/03/26 09:27:51;;;;;;;4.55;3.13;;;;;;;16.82;28.88;98501.69;5049543;28;20428;-79
2024/03/26 09:30:16;;;;;;;4.95;3.30;;;;;;;17.53;28.43;98556.28;5049609;28;20033;-79
2024/03/26 09:32:42;;;;;;;5.78;3.80;;;;;;;16.74;27.27;98506.09;5051087;28;20405;-80
2024/03/26 09:35:08;;;;;;;6.93;4.45;;;;;;;16.13;27.91;98492.63;5049976;28;20532;-78
2024/03/26 09:37:34;;;;;;;7.50;4.80;;;;;;;16.62;27.52;98519.88;5049814;28;20028;-79
2024/03/26 09:40:00;;;;;;;20.35;7.35;;;;;;;16.76;28.12;98504.34;5051560;28;20041;-78
2024/03/26 09:42:25;;;;;;;28.63;11.13;;;;;;;16.82;30.02;98484.94;5038058;28;20086;-80
2024/03/26 09:44:51;;;;;;;15.80;8.38;;;;;;;16.98;27.98;98521.47;5050706;28;20037;-78
2024/03/26 09:47:19;;;;;;;20.42;10.43;;;;;;;17.27;28.52;98494.72;5050868;28;20465;-79
2024/03/26 09:49:45;;;;;;;62.58;26.17;;;;;;;16.58;28.73;98483.00;5051745;28;20061;-80
2024/03/26 09:52:13;;;;;;;37.47;19.77;;;;;;;16.94;28.20;98520.88;5050129;28;20029;-79
2024/03/26 09:54:40;;;;;;;40.67;19.80;;;;;;;16.27;29.49;98419.34;5049980;28;20035;-79
2024/03/26 09:57:06;;;;;;;46.53;20.58;;;;;;;16.05;29.45;98458.00;5046360;28;20041;-79
2024/03/26 09:59:31;;;;;;;26.25;13.80;;;;;;;15.83;30.66;98430.50;5041057;28;20112;-78
2024/03/26 10:02:06;;;;;;;34.92;13.68;;;;;;;16.66;28.42;98523.22;5050191;28;20027;-79
2024/03/26 10:04:32;;;;;;;16.42;8.52;;;;;;;17.12;26.99;98500.34;5047060;28;20028;-81
2024/03/26 10:06:58;;;;;;;26.17;11.60;;;;;;;16.95;28.43;98463.81;5032950;28;20029;-79
2024/03/26 10:09:24;;;;;;;21.63;11.30;;;;;;;16.41;26.93;98478.38;5042562;28;20021;-79
2024/03/26 10:11:50;;;;;;;30.35;13.93;;;;;;;16.53;27.42;98466.16;5051027;28;20029;-79
2024/03/26 10:14:15;;;;;;;22.42;12.30;;;;;;;16.81;27.60;98464.63;5047275;28;20068;-81
2024/03/26 10:16:43;;;;;;;40.97;19.85;;;;;;;16.64;27.31;98483.88;5031909;28;20029;-79
2024/03/26 10:19:09;;;;;;;24.05;11.98;;;;;;;16.84;26.54;98457.28;5035676;28;20059;-78
2024/03/26 10:21:35;;;;;;;21.20;11.15;;;;;;;17.01;27.05;98473.03;5049807;28;20071;-77
2024/03/26 10:24:00;;;;;;;21.23;10.32;;;;;;;16.67;26.90;98435.50;5049985;28;20032;-77
2024/03/26 10:26:28;;;;;;;16.90;9.60;;;;;;;16.91;27.78;98468.84;5046403;28;20455;-78
2024/03/26 10:28:54;;;;;;;11.15;6.68;;;;;;;16.73;26.38;98452.31;5041967;28;20048;-78
2024/03/26 10:31:19;;;;;;;7.40;3.88;;;;;;;17.03;27.11;98464.19;5046451;28;20481;-80
2024/03/26 10:33:47;;;;;;;6.53;3.85;;;;;;;17.31;25.71;98490.47;5030229;28;20270;-81
2024/03/26 10:36:16;;;;;;;11.85;6.32;;;;;;;16.86;26.46;98452.78;5048195;28;20032;-78
2024/03/26 10:38:42;;;;;;;16.63;8.55;;;;;;;17.12;27.75;98494.00;5051229;28;20024;-81
2024/03/26 10:41:22;;;;;;;9.25;4.72;;;;;;;17.32;26.40;98486.41;5031512;28;20033;-80
2024/03/26 10:43:51;;;;;;;4.78;2.83;;;;;;;17.26;26.06;98465.25;5030127;28;20036;-80
2024/03/26 10:46:16;;;;;;;;;;;;;;;17.56;25.41;98486.22;5025041;28;20502;-79
2024/03/26 10:48:44;;;;;;;5.03;3.30;;;;;;;17.13;26.73;98462.03;5024974;28;19924;-81
2024/03/26 10:51:10;;;;;;;6.82;2.90;;;;;;;16.79;24.80;98453.19;5021612;28;20410;-80
2024/03/26 10:53:38;;;;;;;4.25;2.42;;;;;;;16.97;24.32;98471.69;5030449;28;20021;-79
2024/03/26 10:56:06;;;;;;;6.40;2.45;;;;;;;16.84;25.36;98469.22;5025838;28;20026;-80
2024/03/26 10:58:32;;;;;;;7.35;3.08;;;;;;;16.68;25.78;98445.41;5031586;28;20034;-81
2024/03/26 11:00:58;;;;;;;5.78;4.70;;;;;;;16.99;24.27;98475.56;5028270;28;20108;-80
2024/03/26 11:03:25;;;;;;;6.60;3.65;;;;;;;16.61;24.92;98448.59;5043833;28;20083;-80
2024/03/26 11:05:50;;;;;;;4.63;2.38;;;;;;;16.50;25.66;98439.25;5030037;28;20034;-79
2024/03/26 11:08:19;;;;;;;4.22;1.75;;;;;;;16.35;26.05;98416.19;5031608;28;20484;-80
2024/03/26 11:11:02;;;;;;;4.75;1.88;;;;;;;17.37;25.74;98470.97;5033654;28;20029;-80
2024/03/26 11:13:28;;;;;;;5.10;2.20;;;;;;;16.92;26.45;98461.22;5033421;28;20021;-80
2024/03/26 11:15:54;;;;;;;5.82;2.92;;;;;;;16.07;27.03;98410.16;5044836;28;20044;-79
2024/03/26 11:18:31;;;;;;;5.35;4.78;;;;;;;16.21;28.45;98435.22;5053311;28;20492;-80
2024/03/26 11:21:04;;;;;;;12.05;2.10;;;;;;;16.56;29.07;98426.16;5054040;28;20057;-82
2024/03/26 11:23:40;;;;;;;5.15;4.65;;;;;;;16.43;29.15;98373.50;5053635;28;20021;-81
2024/03/26 11:26:05;;;;;;;5.93;3.53;;;;;;;16.50;30.51;98411.38;5051111;28;20102;-83
2024/03/26 11:28:31;;;;;;;7.43;4.65;;;;;;;16.37;31.37;98352.34;5042777;28;20021;-81
2024/03/26 11:30:57;;;;;;;7.03;3.17;;;;;;;15.86;30.12;98409.25;5049362;28;20390;-79
2024/03/26 11:33:27;;;;;;;2.58;2.00;;;;;;;15.97;28.89;98359.34;5031902;28;20110;-79
2024/03/26 11:35:55;;;;;;;2.85;1.90;;;;;;;16.02;29.88;98405.25;5043475;28;20040;-79
2024/03/26 11:38:21;;;;;;;2.58;1.70;;;;;;;15.62;30.52;98428.06;5029850;28;20504;-79
2024/03/26 11:40:47;;;;;;;2.75;1.98;;;;;;;15.85;30.51;98385.47;5034787;28;20516;-79
2024/03/26 11:43:13;;;;;;;2.42;1.70;;;;;;;15.84;30.27;98414.56;5038895;28;20037;-78
2024/03/26 11:45:40;;;;;;;5.68;3.70;;;;;;;16.26;29.95;98394.75;5045887;28;20096;-79